createdAt,value
2016-08-09T00:00:47.564Z,21.52
2016-08-09T00:02:47.526Z,21.49
2016-08-09T00:03:48.218Z,21.58
2016-08-09T00:04:47.511Z,21.58
2016-08-09T00:05:48.186Z,21.61
2016-08-09T00:06:48.183Z,21.51
2016-08-09T00:07:48.162Z,21.55
2016-08-09T00:08:48.142Z,21.63
2016-08-09T00:09:48.139Z,21.56
2016-08-09T00:10:48.108Z,21.63
2016-08-09T00:11:48.099Z,21.59
2016-08-09T00:12:48.071Z,21.64
2016-08-09T00:13:48.056Z,21.66
2016-08-09T00:14:48.047Z,21.64
2016-08-09T00:15:48.029Z,21.66
2016-08-09T00:17:47.995Z,21.66
2016-08-09T00:18:47.994Z,21.63
2016-08-09T00:20:47.965Z,21.61
2016-08-09T00:21:47.930Z,21.61
2016-08-09T00:22:47.918Z,21.63
2016-08-09T00:23:47.186Z,21.71
2016-08-09T00:24:47.171Z,21.67
2016-08-09T00:25:47.163Z,21.66
2016-08-09T00:26:47.132Z,21.63
2016-08-09T00:27:47.841Z,21.66
2016-08-09T00:28:47.828Z,21.56
2016-08-09T00:29:47.103Z,21.63
2016-08-09T00:30:47.075Z,21.68
2016-08-09T00:31:47.771Z,21.7
2016-08-09T00:32:47.756Z,21.68
2016-08-09T00:33:47.022Z,21.71
2016-08-09T00:34:47.719Z,21.7
2016-08-09T00:35:47.693Z,21.7
2016-08-09T00:36:47.689Z,21.79
2016-08-09T00:37:47.666Z,21.75
2016-08-09T00:38:47.658Z,21.74
2016-08-09T00:39:47.637Z,21.75
2016-08-09T00:40:47.632Z,21.75
2016-08-09T00:41:46.895Z,21.83
2016-08-09T00:42:47.595Z,21.77
2016-08-09T00:43:47.570Z,21.81
2016-08-09T00:44:47.555Z,21.66
2016-08-09T00:45:46.840Z,21.71
2016-08-09T00:46:47.525Z,21.77
2016-08-09T00:47:47.504Z,21.77
2016-08-09T00:48:46.791Z,21.75
2016-08-09T00:49:47.482Z,21.73
2016-08-09T00:50:47.463Z,21.75
2016-08-09T00:51:47.449Z,21.75
2016-08-09T00:52:46.720Z,21.73
2016-08-09T00:53:46.700Z,21.73
2016-08-09T00:54:47.395Z,21.77
2016-08-09T00:55:47.376Z,21.73
2016-08-09T00:56:47.383Z,21.81
2016-08-09T00:57:47.347Z,21.75
2016-08-09T00:58:47.323Z,21.82
2016-08-09T00:59:47.317Z,21.77
2016-08-09T01:00:47.294Z,21.73
2016-08-09T01:01:47.283Z,21.74
2016-08-09T01:02:47.265Z,21.74
2016-08-09T01:03:47.248Z,21.71
2016-08-09T01:04:47.241Z,21.75
2016-08-09T01:05:47.215Z,21.73
2016-08-09T01:06:47.200Z,21.82
2016-08-09T01:07:47.183Z,21.75
2016-08-09T01:08:47.173Z,21.75
2016-08-09T01:09:47.148Z,21.77
2016-08-09T01:10:47.140Z,21.75
2016-08-09T01:11:47.133Z,21.74
2016-08-09T01:12:47.113Z,21.75
2016-08-09T01:13:47.090Z,21.79
2016-08-09T01:14:47.076Z,21.79
2016-08-09T01:15:47.056Z,21.79
2016-08-09T01:16:47.033Z,21.75
2016-08-09T01:17:47.020Z,21.74
2016-08-09T01:18:47.011Z,21.75
2016-08-09T01:19:46.281Z,21.75
2016-08-09T01:20:46.261Z,21.75
2016-08-09T01:21:46.966Z,21.77
2016-08-09T01:22:46.944Z,21.79
2016-08-09T01:23:46.932Z,21.74
2016-08-09T01:24:46.915Z,21.74
2016-08-09T01:25:46.896Z,21.73
2016-08-09T01:26:46.875Z,21.73
2016-08-09T01:27:46.859Z,21.74
2016-08-09T01:28:46.847Z,21.75
2016-08-09T01:29:46.830Z,21.79
2016-08-09T01:30:46.817Z,21.81
2016-08-09T01:31:46.092Z,21.81
2016-08-09T01:32:46.780Z,21.81
2016-08-09T01:33:46.765Z,21.81
2016-08-09T01:34:46.748Z,21.74
2016-08-09T01:35:46.732Z,21.79
2016-08-09T01:36:46.007Z,21.79
2016-08-09T01:37:46.698Z,21.77
2016-08-09T01:38:46.698Z,21.79
2016-08-09T01:39:46.672Z,21.74
2016-08-09T01:40:46.657Z,21.77
2016-08-09T01:41:46.639Z,21.7
2016-08-09T01:42:46.618Z,21.73
2016-08-09T01:43:46.606Z,21.74
2016-08-09T01:44:46.587Z,21.75
2016-08-09T01:45:46.576Z,21.74
2016-08-09T01:46:46.566Z,21.79
2016-08-09T01:47:46.548Z,21.81
2016-08-09T01:48:46.525Z,21.79
2016-08-09T01:49:46.511Z,21.82
2016-08-09T01:50:46.485Z,21.83
2016-08-09T01:51:46.487Z,21.74
2016-08-09T01:52:46.460Z,21.74
2016-08-09T01:53:46.462Z,21.77
2016-08-09T01:54:46.434Z,21.68
2016-08-09T01:55:46.419Z,21.9
2016-08-09T01:56:46.393Z,21.89
2016-08-09T01:57:46.382Z,21.9
2016-08-09T01:58:45.654Z,21.93
2016-08-09T01:59:44.938Z,21.85
2016-08-09T02:00:46.331Z,21.99
2016-08-09T02:01:46.320Z,21.85
2016-08-09T02:02:45.606Z,21.94
2016-08-09T02:03:46.291Z,21.86
2016-08-09T02:04:46.273Z,21.85
2016-08-09T02:05:46.259Z,21.86
2016-08-09T02:06:46.231Z,21.99
2016-08-09T02:07:46.217Z,21.86
2016-08-09T02:08:45.499Z,21.79
2016-08-09T02:09:46.182Z,21.94
2016-08-09T02:10:46.167Z,21.79
2016-08-09T02:11:45.449Z,21.85
2016-08-09T02:12:46.140Z,21.85
2016-08-09T02:13:46.127Z,21.89
2016-08-09T02:14:45.401Z,21.96
2016-08-09T02:15:46.087Z,22.01
2016-08-09T02:16:46.077Z,21.94
2016-08-09T02:17:46.054Z,21.96
2016-08-09T02:18:46.037Z,21.91
2016-08-09T02:19:46.031Z,21.93
2016-08-09T02:20:46.016Z,21.99
2016-08-09T02:21:45.286Z,21.94
2016-08-09T02:22:45.977Z,21.98
2016-08-09T02:23:45.954Z,21.93
2016-08-09T02:24:45.951Z,21.94
2016-08-09T02:25:45.224Z,21.94
2016-08-09T02:26:45.915Z,21.98
2016-08-09T02:27:45.910Z,21.86
2016-08-09T02:28:45.874Z,21.98
2016-08-09T02:29:45.863Z,21.96
2016-08-09T02:30:45.842Z,21.98
2016-08-09T02:31:45.128Z,21.98
2016-08-09T02:32:45.811Z,21.99
2016-08-09T02:33:45.807Z,21.96
2016-08-09T02:34:45.783Z,21.98
2016-08-09T02:35:45.776Z,21.93
2016-08-09T02:36:45.761Z,21.83
2016-08-09T02:37:45.738Z,21.85
2016-08-09T02:38:45.720Z,21.82
2016-08-09T02:39:45.709Z,21.81
2016-08-09T02:40:45.694Z,21.71
2016-08-09T02:41:45.681Z,21.81
2016-08-09T02:42:45.669Z,21.75
2016-08-09T02:43:45.638Z,21.75
2016-08-09T02:44:45.623Z,21.77
2016-08-09T02:45:44.910Z,21.83
2016-08-09T02:46:45.592Z,21.85
2016-08-09T02:47:45.583Z,21.85
2016-08-09T02:48:45.556Z,21.85
2016-08-09T02:49:45.536Z,21.85
2016-08-09T02:50:45.525Z,21.85
2016-08-09T02:51:45.512Z,21.86
2016-08-09T02:52:45.493Z,21.85
2016-08-09T02:53:45.472Z,21.86
2016-08-09T02:54:45.469Z,21.85
2016-08-09T02:55:45.444Z,21.82
2016-08-09T02:56:45.438Z,21.81
2016-08-09T02:57:45.412Z,21.83
2016-08-09T02:58:45.404Z,21.85
2016-08-09T02:59:45.385Z,21.86
2016-08-09T03:00:45.368Z,21.82
2016-08-09T03:01:44.645Z,21.89
2016-08-09T03:02:45.335Z,21.83
2016-08-09T03:03:45.320Z,21.79
2016-08-09T03:04:45.299Z,21.91
2016-08-09T03:05:45.291Z,21.89
2016-08-09T03:06:45.264Z,21.86
2016-08-09T03:07:45.253Z,21.85
2016-08-09T03:08:45.232Z,21.89
2016-08-09T03:09:44.520Z,21.81
2016-08-09T03:10:45.213Z,21.9
2016-08-09T03:11:45.194Z,21.91
2016-08-09T03:12:45.173Z,21.96
2016-08-09T03:13:45.168Z,21.85
2016-08-09T03:14:45.147Z,21.93
2016-08-09T03:15:45.138Z,21.85
2016-08-09T03:16:45.105Z,21.94
2016-08-09T03:17:45.093Z,21.98
2016-08-09T03:18:45.079Z,22.01
2016-08-09T03:19:45.058Z,21.98
2016-08-09T03:20:45.055Z,21.91
2016-08-09T03:21:45.034Z,21.96
2016-08-09T03:22:45.015Z,22.01
2016-08-09T03:23:44.291Z,21.99
2016-08-09T03:24:44.986Z,22.01
2016-08-09T03:25:44.967Z,21.99
2016-08-09T03:26:44.960Z,22.04
2016-08-09T03:27:44.932Z,22.11
2016-08-09T03:28:44.220Z,22.08
2016-08-09T03:29:44.902Z,22.08
2016-08-09T03:30:44.889Z,22.12
2016-08-09T03:31:44.869Z,22.09
2016-08-09T03:32:44.855Z,22.11
2016-08-09T03:33:44.854Z,22.11
2016-08-09T03:34:44.820Z,22.11
2016-08-09T03:35:44.813Z,22.06
2016-08-09T03:36:44.789Z,22.12
2016-08-09T03:37:44.786Z,22.11
2016-08-09T03:38:44.757Z,22.12
2016-08-09T03:39:44.740Z,22.08
2016-08-09T03:40:44.016Z,22.08
2016-08-09T03:41:44.706Z,22.08
2016-08-09T03:42:44.699Z,22.11
2016-08-09T03:43:44.675Z,22.04
2016-08-09T03:44:44.666Z,22.05
2016-08-09T03:45:44.642Z,22.06
2016-08-09T03:46:44.640Z,22.11
2016-08-09T03:48:43.891Z,22.09
2016-08-09T03:49:44.580Z,22.12
2016-08-09T03:50:44.559Z,22.09
2016-08-09T03:51:44.554Z,22.12
2016-08-09T03:52:44.528Z,22.14
2016-08-09T03:53:44.516Z,22.06
2016-08-09T03:54:44.496Z,22.05
2016-08-09T03:55:44.495Z,22.14
2016-08-09T03:56:44.464Z,22.08
2016-08-09T03:57:44.478Z,22.12
2016-08-09T03:58:43.739Z,22.11
2016-08-09T03:59:44.426Z,22.15
2016-08-09T04:00:44.408Z,22.09
2016-08-09T04:01:44.391Z,22.09
2016-08-09T04:02:43.914Z,22.15
2016-08-09T04:03:44.353Z,22.12
2016-08-09T04:04:44.358Z,22.14
2016-08-09T04:05:44.335Z,22.01
2016-08-09T04:06:44.307Z,22.08
2016-08-09T04:07:44.302Z,22.14
2016-08-09T04:08:44.278Z,22.12
2016-08-09T04:09:44.257Z,22.08
2016-08-09T04:10:44.243Z,22.14
2016-08-09T04:11:44.223Z,22.02
2016-08-09T04:12:44.220Z,22.08
2016-08-09T04:13:44.195Z,22.09
2016-08-09T04:14:44.183Z,22.09
2016-08-09T04:15:44.163Z,22.12
2016-08-09T04:16:44.147Z,22.14
2016-08-09T04:17:43.208Z,22.11
2016-08-09T04:18:44.127Z,22.09
2016-08-09T04:19:44.095Z,22.08
2016-08-09T04:20:44.072Z,22.05
2016-08-09T04:21:44.069Z,22.06
2016-08-09T04:22:44.054Z,22.09
2016-08-09T04:23:44.041Z,22.08
2016-08-09T04:24:44.017Z,22.06
2016-08-09T04:25:44.004Z,22.09
2016-08-09T04:26:43.992Z,22.09
2016-08-09T04:27:43.971Z,22.05
2016-08-09T04:28:43.959Z,22.09
2016-08-09T04:29:43.941Z,22.06
2016-08-09T04:30:43.930Z,22.09
2016-08-09T04:31:43.917Z,22.11
2016-08-09T04:33:43.878Z,22.11
2016-08-09T04:34:43.148Z,22.09
2016-08-09T04:35:43.851Z,22.14
2016-08-09T04:36:43.118Z,22.08
2016-08-09T04:37:43.816Z,22.02
2016-08-09T04:38:43.796Z,22.09
2016-08-09T04:39:43.779Z,22.12
2016-08-09T04:40:43.763Z,22.08
2016-08-09T04:41:43.749Z,22.05
2016-08-09T04:42:43.734Z,22.11
2016-08-09T04:43:43.719Z,21.99
2016-08-09T04:44:43.711Z,22.08
2016-08-09T04:45:43.685Z,22.09
2016-08-09T04:46:43.684Z,22.12
2016-08-09T04:48:43.631Z,22.04
2016-08-09T04:49:43.619Z,21.94
2016-08-09T04:50:43.609Z,21.98
2016-08-09T04:51:43.593Z,21.9
2016-08-09T04:52:43.584Z,21.99
2016-08-09T04:53:43.568Z,22.01
2016-08-09T04:54:43.550Z,21.99
2016-08-09T04:55:43.535Z,22.02
2016-08-09T04:56:43.509Z,22.06
2016-08-09T04:57:43.500Z,22.04
2016-08-09T04:58:43.476Z,21.99
2016-08-09T04:59:43.462Z,21.99
2016-08-09T05:00:43.445Z,22.06
2016-08-09T05:01:43.435Z,22.01
2016-08-09T05:02:43.414Z,22.11
2016-08-09T05:03:43.414Z,21.99
2016-08-09T05:04:43.388Z,22.05
2016-08-09T05:05:43.366Z,22.02
2016-08-09T05:06:43.351Z,22.01
2016-08-09T05:07:43.348Z,22.06
2016-08-09T05:08:42.623Z,22.08
2016-08-09T05:09:43.296Z,22.05
2016-08-09T05:10:43.290Z,22.09
2016-08-09T05:11:43.275Z,22.02
2016-08-09T05:12:43.257Z,22.04
2016-08-09T05:13:43.236Z,22.04
2016-08-09T05:14:43.232Z,22.06
2016-08-09T05:15:42.503Z,22.09
2016-08-09T05:16:43.200Z,22.11
2016-08-09T05:17:42.462Z,22.12
2016-08-09T05:18:43.151Z,22.06
2016-08-09T05:19:43.140Z,22.08
2016-08-09T05:20:43.132Z,22.05
2016-08-09T05:21:43.112Z,22.08
2016-08-09T05:22:43.090Z,22.01
2016-08-09T05:23:43.092Z,22.11
2016-08-09T05:24:43.067Z,22.09
2016-08-09T05:25:43.043Z,22.04
2016-08-09T05:26:43.032Z,22.09
2016-08-09T05:27:43.006Z,22.02
2016-08-09T05:28:42.994Z,21.93
2016-08-09T05:29:42.986Z,21.99
2016-08-09T05:30:42.977Z,21.93
2016-08-09T05:31:42.237Z,21.98
2016-08-09T05:32:42.926Z,21.96
2016-08-09T05:33:42.206Z,22.01
2016-08-09T05:34:42.902Z,21.98
2016-08-09T05:35:42.881Z,21.99
2016-08-09T05:36:42.880Z,21.93
2016-08-09T05:37:42.878Z,21.96
2016-08-09T05:38:42.129Z,21.94
2016-08-09T05:39:42.822Z,21.93
2016-08-09T05:40:42.808Z,22.01
2016-08-09T05:41:42.791Z,21.96
2016-08-09T05:42:42.779Z,21.91
2016-08-09T05:43:42.756Z,21.94
2016-08-09T05:44:42.742Z,21.91
2016-08-09T05:45:42.729Z,21.9
2016-08-09T05:46:42.716Z,21.93
2016-08-09T05:47:42.687Z,21.89
2016-08-09T05:48:42.672Z,21.89
2016-08-09T05:49:42.657Z,21.89
2016-08-09T05:50:41.219Z,21.99
2016-08-09T05:51:41.919Z,21.83
2016-08-09T05:52:42.624Z,21.91
2016-08-09T05:53:42.592Z,21.89
2016-08-09T05:54:42.583Z,21.85
2016-08-09T05:55:42.567Z,21.99
2016-08-09T05:56:42.545Z,21.83
2016-08-09T05:57:41.822Z,21.52
2016-08-09T05:58:42.519Z,21.33
2016-08-09T05:59:42.499Z,21.21
2016-08-09T06:00:42.489Z,21.16
2016-08-09T06:01:42.466Z,21.21
2016-08-09T06:02:41.743Z,21.08
2016-08-09T06:03:42.453Z,20.97
2016-08-09T06:04:42.428Z,20.88
2016-08-09T06:05:42.403Z,20.91
2016-08-09T06:06:42.388Z,20.9
2016-08-09T06:07:42.366Z,20.82
2016-08-09T06:08:42.361Z,20.93
2016-08-09T06:09:42.335Z,20.85
2016-08-09T06:10:42.324Z,20.85
2016-08-09T06:11:42.308Z,20.85
2016-08-09T06:12:42.452Z,20.88
2016-08-09T06:13:42.273Z,20.85
2016-08-09T06:14:42.265Z,20.76
2016-08-09T06:15:42.243Z,20.73
2016-08-09T06:16:42.222Z,20.76
2016-08-09T06:17:42.211Z,20.85
2016-08-09T06:18:42.188Z,20.87
2016-08-09T06:19:40.759Z,20.79
2016-08-09T06:20:42.166Z,20.63
2016-08-09T06:21:42.152Z,20.66
2016-08-09T06:22:42.146Z,20.73
2016-08-09T06:23:42.113Z,20.73
2016-08-09T06:24:42.093Z,20.71
2016-08-09T06:25:42.080Z,20.73
2016-08-09T06:26:42.068Z,20.63
2016-08-09T06:27:42.044Z,20.61
2016-08-09T06:28:42.031Z,20.61
2016-08-09T06:29:42.025Z,20.64
2016-08-09T06:30:41.996Z,20.58
2016-08-09T06:31:41.981Z,20.56
2016-08-09T06:32:41.974Z,20.51
2016-08-09T06:33:41.949Z,20.5
2016-08-09T06:34:41.936Z,20.48
2016-08-09T06:35:41.914Z,20.48
2016-08-09T06:36:41.913Z,20.68
2016-08-09T06:37:41.890Z,20.63
2016-08-09T06:38:41.863Z,20.71
2016-08-09T06:39:41.847Z,20.57
2016-08-09T06:40:41.834Z,20.51
2016-08-09T06:41:41.825Z,20.54
2016-08-09T06:42:41.821Z,20.58
2016-08-09T06:43:41.785Z,20.53
2016-08-09T06:44:41.767Z,20.53
2016-08-09T06:45:41.750Z,20.6
2016-08-09T06:46:41.730Z,20.46
2016-08-09T06:47:41.728Z,20.5
2016-08-09T06:48:41.701Z,20.46
2016-08-09T06:52:41.706Z,20.46
2016-08-09T06:53:41.617Z,20.46
2016-08-09T06:54:41.603Z,20.48
2016-08-09T06:55:41.584Z,20.4
2016-08-09T06:56:41.570Z,20.48
2016-08-09T06:57:41.549Z,20.46
2016-08-09T06:58:41.540Z,20.46
2016-08-09T06:59:41.526Z,20.5
2016-08-09T07:00:41.508Z,20.53
2016-08-09T07:01:41.482Z,20.46
2016-08-09T07:02:41.463Z,20.5
2016-08-09T07:03:41.461Z,20.5
2016-08-09T07:04:41.435Z,20.5
2016-08-09T07:05:41.422Z,20.5
2016-08-09T07:06:41.405Z,20.51
2016-08-09T07:07:41.393Z,20.41
2016-08-09T07:08:40.662Z,20.34
2016-08-09T07:09:41.353Z,20.4
2016-08-09T07:10:41.331Z,20.44
2016-08-09T07:11:40.608Z,20.53
2016-08-09T07:13:41.283Z,20.51
2016-08-09T07:14:41.258Z,20.46
2016-08-09T07:15:41.255Z,20.48
2016-08-09T07:16:41.226Z,20.48
2016-08-09T07:17:41.219Z,20.46
2016-08-09T07:18:41.201Z,20.44
2016-08-09T07:19:41.187Z,20.31
2016-08-09T07:20:41.168Z,20.19
2016-08-09T07:21:41.146Z,20.27
2016-08-09T07:22:41.151Z,20.2
2016-08-09T07:23:41.111Z,20.17
2016-08-09T07:24:41.099Z,20.13
2016-08-09T07:25:41.087Z,20.2
2016-08-09T07:26:40.366Z,20.23
2016-08-09T07:27:41.047Z,20.35
2016-08-09T07:28:41.034Z,20.46
2016-08-09T07:29:40.315Z,20.57
2016-08-09T07:30:40.293Z,20.63
2016-08-09T07:31:40.988Z,20.78
2016-08-09T07:32:40.979Z,20.58
2016-08-09T07:33:40.950Z,20.41
2016-08-09T07:34:40.938Z,20.34
2016-08-09T07:35:40.921Z,20.34
2016-08-09T07:36:40.900Z,20.37
2016-08-09T07:37:40.892Z,20.27
2016-08-09T07:38:40.864Z,20.22
2016-08-09T07:39:40.850Z,20.19
2016-08-09T07:40:40.839Z,20.23
2016-08-09T07:41:40.811Z,20.22
2016-08-09T07:42:40.796Z,20.22
2016-08-09T07:43:40.797Z,20.16
2016-08-09T07:44:40.758Z,20.12
2016-08-09T07:45:40.752Z,19.97
2016-08-09T07:46:40.740Z,19.8
2016-08-09T07:47:40.724Z,19.83
2016-08-09T07:48:40.693Z,19.82
2016-08-09T07:49:40.679Z,19.79
2016-08-09T07:50:40.665Z,19.83
2016-08-09T07:51:40.647Z,19.76
2016-08-09T07:52:40.636Z,19.76
2016-08-09T07:53:40.617Z,19.85
2016-08-09T07:54:39.886Z,19.97
2016-08-09T07:55:39.873Z,20.07
2016-08-09T07:56:40.593Z,20.31
2016-08-09T07:57:40.545Z,20.53
2016-08-09T07:58:40.532Z,20.66
2016-08-09T07:59:40.514Z,20.85
2016-08-09T08:00:40.496Z,20.93
2016-08-09T08:01:39.806Z,20.94
2016-08-09T08:02:40.459Z,21.03
2016-08-09T08:03:40.454Z,20.98
2016-08-09T08:04:39.722Z,21.15
2016-08-09T08:05:40.425Z,21.13
2016-08-09T08:06:40.401Z,21.18
2016-08-09T08:07:40.390Z,21.09
2016-08-09T08:08:40.367Z,21.22
2016-08-09T08:09:40.347Z,21.28
2016-08-09T08:10:39.635Z,21.31
2016-08-09T08:11:40.325Z,21.27
2016-08-09T08:12:39.584Z,21.34
2016-08-09T08:13:40.280Z,21.38
2016-08-09T08:14:40.262Z,21.33
2016-08-09T08:15:40.249Z,21.38
2016-08-09T08:16:40.249Z,21.42
2016-08-09T08:17:40.222Z,21.4
2016-08-09T08:19:40.177Z,21.11
2016-08-09T08:20:39.447Z,21.15
2016-08-09T08:21:40.145Z,21.16
2016-08-09T08:22:40.121Z,21.12
2016-08-09T08:23:40.119Z,21.13
2016-08-09T08:24:40.092Z,21.09
2016-08-09T08:25:40.077Z,21.01
2016-08-09T08:26:40.061Z,21.01
2016-08-09T08:27:39.340Z,21.18
2016-08-09T08:28:40.032Z,21.16
2016-08-09T08:29:40.006Z,21.16
2016-08-09T08:30:39.995Z,21.13
2016-08-09T08:31:39.982Z,21.09
2016-08-09T08:32:39.953Z,21.18
2016-08-09T08:34:39.924Z,21.18
2016-08-09T08:35:39.908Z,21.09
2016-08-09T08:36:39.891Z,21.03
2016-08-09T08:37:39.874Z,21.27
2016-08-09T08:38:39.860Z,21.22
2016-08-09T08:39:39.133Z,21.3
2016-08-09T08:40:39.835Z,21.38
2016-08-09T08:41:39.817Z,21.46
2016-08-09T08:42:39.801Z,21.51
2016-08-09T08:43:39.770Z,21.55
2016-08-09T08:44:39.769Z,21.55
2016-08-09T08:45:39.741Z,21.53
2016-08-09T08:46:39.725Z,21.58
2016-08-09T08:47:39.711Z,21.58
2016-08-09T08:49:38.973Z,21.56
2016-08-09T08:50:39.663Z,21.66
2016-08-09T08:51:39.650Z,21.64
2016-08-09T08:52:38.930Z,21.63
2016-08-09T08:53:39.619Z,21.64
2016-08-09T08:54:39.593Z,21.64
2016-08-09T08:55:39.575Z,21.59
2016-08-09T08:56:39.566Z,21.71
2016-08-09T08:57:39.552Z,21.7
2016-08-09T08:58:39.530Z,21.63
2016-08-09T08:59:39.533Z,21.67
2016-08-09T09:00:39.498Z,21.7
2016-08-09T09:01:39.488Z,21.66
2016-08-09T09:02:38.753Z,21.59
2016-08-09T09:03:39.448Z,21.61
2016-08-09T09:04:39.447Z,21.55
2016-08-09T09:05:39.408Z,21.53
2016-08-09T09:06:39.411Z,21.55
2016-08-09T09:07:39.378Z,21.51
2016-08-09T09:08:39.360Z,21.49
2016-08-09T09:09:39.353Z,21.56
2016-08-09T09:10:39.325Z,21.52
2016-08-09T09:11:39.319Z,21.52
2016-08-09T09:12:39.293Z,21.55
2016-08-09T09:13:39.282Z,21.52
2016-08-09T09:14:38.567Z,21.52
2016-08-09T09:15:39.253Z,21.3
2016-08-09T09:16:39.226Z,21.09
2016-08-09T09:17:39.246Z,21.12
2016-08-09T09:18:39.194Z,20.97
2016-08-09T09:19:39.181Z,20.9
2016-08-09T09:20:39.166Z,20.88
2016-08-09T09:21:39.146Z,20.85
2016-08-09T09:22:39.135Z,20.71
2016-08-09T09:23:39.112Z,20.79
2016-08-09T09:24:39.111Z,20.9
2016-08-09T09:25:39.082Z,21
2016-08-09T09:26:39.069Z,21.15
2016-08-09T09:27:39.056Z,21.22
2016-08-09T09:28:39.039Z,21.28
2016-08-09T09:29:39.023Z,21.37
2016-08-09T09:30:38.297Z,21.36
2016-08-09T09:31:38.993Z,21.56
2016-08-09T09:32:38.964Z,21.49
2016-08-09T09:33:38.959Z,21.56
2016-08-09T09:34:38.935Z,21.51
2016-08-09T09:35:38.922Z,21.63
2016-08-09T09:36:38.900Z,21.53
2016-08-09T09:37:38.894Z,21.59
2016-08-09T09:38:38.166Z,21.63
2016-08-09T09:39:38.859Z,21.7
2016-08-09T09:40:38.839Z,21.68
2016-08-09T09:41:38.829Z,21.58
2016-08-09T09:42:38.809Z,21.63
2016-08-09T09:43:38.800Z,21.63
2016-08-09T09:44:38.058Z,21.68
2016-08-09T09:45:38.048Z,21.68
2016-08-09T09:46:38.027Z,21.67
2016-08-09T09:47:38.725Z,21.64
2016-08-09T09:48:38.011Z,21.77
2016-08-09T09:49:38.688Z,21.75
2016-08-09T09:50:38.688Z,21.79
2016-08-09T09:51:38.662Z,21.75
2016-08-09T09:52:38.639Z,21.77
2016-08-09T09:53:38.624Z,21.73
2016-08-09T09:54:38.612Z,21.79
2016-08-09T09:55:38.587Z,21.75
2016-08-09T09:56:38.579Z,21.81
2016-08-09T09:57:38.554Z,21.7
2016-08-09T09:58:38.541Z,21.68
2016-08-09T09:59:38.523Z,21.81
2016-08-09T10:00:37.797Z,21.74
2016-08-09T10:01:38.498Z,21.79
2016-08-09T10:02:38.469Z,21.79
2016-08-09T10:03:38.463Z,21.83
2016-08-09T10:04:38.449Z,21.85
2016-08-09T10:05:38.435Z,21.86
2016-08-09T10:06:37.700Z,21.94
2016-08-09T10:07:38.392Z,21.93
2016-08-09T10:08:38.388Z,21.9
2016-08-09T10:09:38.364Z,21.89
2016-08-09T10:10:38.349Z,21.9
2016-08-09T10:11:38.330Z,21.85
2016-08-09T10:12:38.318Z,21.89
2016-08-09T10:13:38.301Z,21.81
2016-08-09T10:14:37.584Z,21.85
2016-08-09T10:15:36.847Z,21.83
2016-08-09T10:16:38.245Z,21.86
2016-08-09T10:17:38.241Z,21.86
2016-08-09T10:18:38.214Z,21.85
2016-08-09T10:19:38.204Z,21.83
2016-08-09T10:20:37.472Z,21.9
2016-08-09T10:21:37.454Z,21.85
2016-08-09T10:22:38.155Z,21.79
2016-08-09T10:23:38.140Z,21.86
2016-08-09T10:24:38.130Z,21.89
2016-08-09T10:25:38.104Z,21.93
2016-08-09T10:26:38.086Z,21.93
2016-08-09T10:27:38.074Z,21.96
2016-08-09T10:28:38.069Z,21.99
2016-08-09T10:29:37.331Z,21.93
2016-08-09T10:30:38.033Z,21.91
2016-08-09T10:31:38.045Z,22.01
2016-08-09T10:32:37.295Z,21.93
2016-08-09T10:33:37.969Z,21.94
2016-08-09T10:34:37.961Z,21.9
2016-08-09T10:35:37.227Z,21.98
2016-08-09T10:36:37.929Z,21.99
2016-08-09T10:37:37.920Z,22.01
2016-08-09T10:38:37.895Z,21.99
2016-08-09T10:39:37.938Z,22.04
2016-08-09T10:40:37.860Z,21.99
2016-08-09T10:41:37.857Z,22.02
2016-08-09T10:42:37.824Z,22.05
2016-08-09T10:43:37.807Z,21.98
2016-08-09T10:44:37.796Z,22.01
2016-08-09T10:45:37.780Z,21.98
2016-08-09T10:46:37.777Z,21.98
2016-08-09T10:47:37.750Z,22.08
2016-08-09T10:48:37.741Z,22.02
2016-08-09T10:49:37.736Z,22.09
2016-08-09T10:50:37.748Z,22.09
2016-08-09T10:51:36.977Z,22.05
2016-08-09T10:52:37.667Z,22.02
2016-08-09T10:53:37.649Z,22.05
2016-08-09T10:54:37.644Z,22.02
2016-08-09T10:55:37.620Z,22.06
2016-08-09T10:56:37.593Z,22.08
2016-08-09T10:57:37.580Z,22.11
2016-08-09T10:58:37.569Z,22.05
2016-08-09T10:59:37.591Z,22.11
2016-08-09T11:00:37.543Z,22.12
2016-08-09T11:01:37.524Z,22.19
2016-08-09T11:02:37.508Z,22.23
2016-08-09T11:03:37.491Z,22.2
2016-08-09T11:04:37.477Z,22.17
2016-08-09T11:05:37.456Z,22.14
2016-08-09T11:06:37.435Z,22.17
2016-08-09T11:07:37.444Z,22.14
2016-08-09T11:08:36.702Z,22.14
2016-08-09T11:09:36.683Z,22.12
2016-08-09T11:10:36.680Z,22.12
2016-08-09T11:11:36.647Z,22.11
2016-08-09T11:12:36.639Z,22.17
2016-08-09T11:13:37.327Z,22.11
2016-08-09T11:14:37.318Z,22.08
2016-08-09T11:15:36.589Z,22.11
2016-08-09T11:16:37.283Z,22.11
2016-08-09T11:17:37.322Z,22.08
2016-08-09T11:18:37.263Z,22.08
2016-08-09T11:19:37.239Z,22.08
2016-08-09T11:20:37.216Z,22.17
2016-08-09T11:21:37.206Z,22.04
2016-08-09T11:22:36.480Z,22.08
2016-08-09T11:23:37.169Z,22.12
2016-08-09T11:24:36.447Z,22.06
2016-08-09T11:25:37.131Z,22.06
2016-08-09T11:26:37.124Z,22.12
2016-08-09T11:27:37.116Z,22.12
2016-08-09T11:28:37.091Z,22.14
2016-08-09T11:29:37.069Z,22.06
2016-08-09T11:30:37.056Z,22.11
2016-08-09T11:31:37.053Z,22.15
2016-08-09T11:32:37.025Z,22.06
2016-08-09T11:33:36.302Z,22.11
2016-08-09T11:34:36.993Z,22.06
2016-08-09T11:35:36.978Z,22.15
2016-08-09T11:36:36.961Z,22.11
2016-08-09T11:37:36.935Z,22.14
2016-08-09T11:38:36.925Z,22.06
2016-08-09T11:39:36.918Z,22.19
2016-08-09T11:40:36.892Z,22.08
2016-08-09T11:41:36.882Z,22.09
2016-08-09T11:42:36.153Z,22.14
2016-08-09T11:43:36.866Z,22.04
2016-08-09T11:44:36.830Z,22.09
2016-08-09T11:45:36.105Z,22.12
2016-08-09T11:46:36.803Z,22.14
2016-08-09T11:47:36.781Z,22.12
2016-08-09T11:48:36.776Z,22.14
2016-08-09T11:49:36.754Z,22.15
2016-08-09T11:50:36.743Z,22.11
2016-08-09T11:51:36.731Z,22.2
2016-08-09T11:52:36.015Z,22.15
2016-08-09T11:53:36.684Z,22.26
2016-08-09T11:54:36.665Z,22.15
2016-08-09T11:55:36.656Z,22.19
2016-08-09T11:56:36.634Z,22.14
2016-08-09T11:57:36.621Z,22.2
2016-08-09T11:58:35.903Z,22.23
2016-08-09T11:59:35.886Z,22.15
2016-08-09T12:00:36.584Z,22.17
2016-08-09T12:01:36.556Z,22.24
2016-08-09T12:02:36.549Z,22.2
2016-08-09T12:03:36.542Z,22.26
2016-08-09T12:05:36.496Z,22.23
2016-08-09T12:06:36.472Z,22.21
2016-08-09T12:07:36.475Z,22.15
2016-08-09T12:08:35.737Z,22.23
2016-08-09T12:09:36.435Z,22.17
2016-08-09T12:10:36.411Z,22.21
2016-08-09T12:11:36.398Z,22.31
2016-08-09T12:12:36.390Z,22.26
2016-08-09T12:13:36.362Z,22.35
2016-08-09T12:14:36.363Z,22.23
2016-08-09T12:15:36.340Z,22.31
2016-08-09T12:16:36.326Z,22.35
2016-08-09T12:17:36.301Z,22.27
2016-08-09T12:18:36.286Z,22.42
2016-08-09T12:19:36.269Z,22.35
2016-08-09T12:20:36.261Z,22.35
2016-08-09T12:21:36.241Z,22.35
2016-08-09T12:22:36.231Z,22.35
2016-08-09T12:23:36.200Z,22.35
2016-08-09T12:24:36.193Z,22.29
2016-08-09T12:25:36.172Z,22.36
2016-08-09T12:26:36.156Z,22.35
2016-08-09T12:27:36.147Z,22.33
2016-08-09T12:28:36.132Z,22.31
2016-08-09T12:29:36.114Z,22.39
2016-08-09T12:30:35.393Z,22.35
2016-08-09T12:31:36.080Z,22.38
2016-08-09T12:32:36.055Z,22.39
2016-08-09T12:33:36.045Z,22.33
2016-08-09T12:34:35.571Z,22.35
2016-08-09T12:35:35.299Z,22.35
2016-08-09T12:36:35.995Z,22.38
2016-08-09T12:37:35.981Z,22.26
2016-08-09T12:38:35.970Z,22.35
2016-08-09T12:39:35.952Z,22.17
2016-08-09T12:40:35.941Z,21.9
2016-08-09T12:41:35.923Z,21.75
2016-08-09T12:42:35.905Z,21.53
2016-08-09T12:43:35.893Z,21.45
2016-08-09T12:44:35.867Z,21.24
2016-08-09T12:45:35.153Z,21.31
2016-08-09T12:46:35.845Z,21.31
2016-08-09T12:47:35.828Z,21.37
2016-08-09T12:48:35.812Z,21.28
2016-08-09T12:49:34.876Z,21.22
2016-08-09T12:50:35.773Z,21.28
2016-08-09T12:51:35.769Z,21.24
2016-08-09T12:52:35.756Z,21.27
2016-08-09T12:53:35.026Z,21.49
2016-08-09T12:54:35.722Z,21.55
2016-08-09T12:55:35.687Z,21.63
2016-08-09T12:56:35.678Z,21.81
2016-08-09T12:57:35.662Z,21.83
2016-08-09T12:58:35.654Z,21.93
2016-08-09T12:59:35.639Z,22.04
2016-08-09T13:00:35.611Z,22.09
2016-08-09T13:01:35.598Z,22.17
2016-08-09T13:02:35.594Z,22.19
2016-08-09T13:03:35.561Z,22.3
2016-08-09T13:05:35.548Z,22.27
2016-08-09T13:06:35.540Z,22.2
2016-08-09T13:07:35.514Z,22.21
2016-08-09T13:08:35.477Z,22.29
2016-08-09T13:09:35.464Z,22.27